createdAt,value
2019-04-28T00:02:08.524Z,10.37
2019-04-28T00:06:11.055Z,10.42
2019-04-28T00:10:13.237Z,10.29
2019-04-28T00:14:14.845Z,10.27
2019-04-28T00:18:16.537Z,10.30
2019-04-28T00:22:18.302Z,10.19
2019-04-28T00:26:21.121Z,10.17
2019-04-28T00:30:23.467Z,10.18
2019-04-28T00:34:25.039Z,10.15
2019-04-28T00:38:26.602Z,10.16
2019-04-28T00:42:28.418Z,10.18
2019-04-28T00:46:31.126Z,10.22
2019-04-28T00:50:32.797Z,10.13
2019-04-28T00:54:34.355Z,10.11
2019-04-28T00:58:35.925Z,9.97
2019-04-28T01:02:37.618Z,10.04
2019-04-28T01:06:39.224Z,9.97
2019-04-28T01:10:41.047Z,10.02
2019-04-28T01:14:43.488Z,10.04
2019-04-28T01:18:45.156Z,9.95
2019-04-28T01:22:46.779Z,9.99
2019-04-28T01:26:50.735Z,9.97
2019-04-28T01:30:52.146Z,9.95
2019-04-28T01:34:53.702Z,9.95
2019-04-28T01:38:55.395Z,10.01
2019-04-28T01:42:56.968Z,9.91
2019-04-28T01:47:00.944Z,9.91
2019-04-28T01:51:02.202Z,9.94
2019-04-28T01:55:04.161Z,9.95
2019-04-28T01:59:05.696Z,9.91
2019-04-28T02:03:07.286Z,10.01
2019-04-28T02:07:10.881Z,10.02
2019-04-28T02:11:12.324Z,9.99
2019-04-28T02:15:13.929Z,10.03
2019-04-28T02:19:15.885Z,10.01
2019-04-28T02:23:17.675Z,10.00
2019-04-28T02:27:20.381Z,10.04
2019-04-28T02:31:24.406Z,10.03
2019-04-28T02:35:31.479Z,10.04
2019-04-28T02:39:32.007Z,10.09
2019-04-28T02:43:33.733Z,10.07
2019-04-28T02:47:35.282Z,10.08
2019-04-28T02:51:36.835Z,10.09
2019-04-28T02:55:41.060Z,10.05
2019-04-28T02:59:44.669Z,10.02
2019-04-28T03:03:45.397Z,10.01
2019-04-28T03:07:47.059Z,9.95
2019-04-28T03:11:51.013Z,9.99
2019-04-28T03:15:52.073Z,10.01
2019-04-28T03:19:53.828Z,9.99
2019-04-28T03:23:55.451Z,9.98
2019-04-28T03:27:57.041Z,9.88
2019-04-28T03:32:20.672Z,9.95
2019-04-28T03:36:07.131Z,9.93
2019-04-28T03:40:05.703Z,9.90
2019-04-28T03:44:07.334Z,9.90
2019-04-28T03:48:11.340Z,9.91
2019-04-28T03:52:12.515Z,9.91
2019-04-28T03:56:14.211Z,10.02
2019-04-28T04:00:15.867Z,9.98
2019-04-28T04:04:18.071Z,9.97
2019-04-28T04:08:20.833Z,10.00
2019-04-28T04:12:23.462Z,9.98
2019-04-28T04:16:25.165Z,10.08
2019-04-28T04:20:26.833Z,9.95
2019-04-28T04:24:30.632Z,9.95
2019-04-28T04:28:31.971Z,10.00
2019-04-28T04:32:34.011Z,9.98
2019-04-28T04:36:35.801Z,10.09
2019-04-28T04:40:37.350Z,10.06
2019-04-28T04:44:41.507Z,10.11
2019-04-28T04:48:42.918Z,10.07
2019-04-28T04:52:44.505Z,10.09
2019-04-28T04:56:46.231Z,10.06
2019-04-28T05:00:47.843Z,10.12
2019-04-28T05:04:50.622Z,10.12
2019-04-28T05:08:52.254Z,10.04
2019-04-28T05:12:53.821Z,10.09
2019-04-28T05:16:55.492Z,10.05
2019-04-28T05:20:57.068Z,10.03
2019-04-28T05:25:00.093Z,9.97
2019-04-28T05:29:01.810Z,9.95
2019-04-28T05:33:03.368Z,9.94
2019-04-28T05:37:05.019Z,10.06
2019-04-28T05:41:06.592Z,10.02
2019-04-28T05:45:10.268Z,10.12
2019-04-28T05:49:11.824Z,10.11
2019-04-28T05:53:13.504Z,10.09
2019-04-28T05:57:15.196Z,10.13
2019-04-28T06:01:16.952Z,10.22
2019-04-28T06:05:20.002Z,10.28
2019-04-28T06:09:22.173Z,10.31
2019-04-28T06:13:23.768Z,10.32
2019-04-28T06:17:25.592Z,10.35
2019-04-28T06:21:27.196Z,10.51
2019-04-28T06:25:28.789Z,10.51
2019-04-28T06:29:30.413Z,10.38
2019-04-28T06:33:32.358Z,10.40
2019-04-28T06:37:33.989Z,10.41
2019-04-28T06:41:35.908Z,10.54
2019-04-28T06:45:37.547Z,10.62
2019-04-28T06:49:39.192Z,10.77
2019-04-28T06:53:41.061Z,11.30
2019-04-28T06:57:42.769Z,11.30
2019-04-28T07:01:44.417Z,11.50
2019-04-28T07:05:46.058Z,11.54
2019-04-28T07:09:47.710Z,11.69
2019-04-28T07:13:49.395Z,11.69
2019-04-28T07:17:51.366Z,11.87
2019-04-28T07:21:53.431Z,12.01
2019-04-28T07:25:55.160Z,12.45
2019-04-28T07:29:56.809Z,12.45
2019-04-28T07:33:58.785Z,12.61
2019-04-28T07:38:00.780Z,12.61
2019-04-28T07:42:03.240Z,12.61
2019-04-28T07:46:04.880Z,12.29
2019-04-28T07:50:06.962Z,12.34
2019-04-28T07:54:08.744Z,12.45
2019-04-28T07:58:10.378Z,12.54
2019-04-28T08:02:12.755Z,12.54
2019-04-28T08:06:14.564Z,12.61
2019-04-28T08:10:16.356Z,12.62
2019-04-28T08:14:19.650Z,12.62
2019-04-28T08:18:21.418Z,12.53
2019-04-28T08:22:23.014Z,13.16
2019-04-28T08:26:24.628Z,13.16
2019-04-28T08:30:27.285Z,13.10
2019-04-28T08:34:29.205Z,13.31
2019-04-28T08:38:30.841Z,13.31
2019-04-28T08:42:32.474Z,13.43
2019-04-28T08:46:34.308Z,13.51
2019-04-28T08:50:35.969Z,13.41
2019-04-28T08:54:37.621Z,13.36
2019-04-28T08:58:39.281Z,14.00
2019-04-28T09:02:41.292Z,14.00
2019-04-28T09:06:42.891Z,14.39
2019-04-28T09:10:45.164Z,14.69
2019-04-28T09:14:47.004Z,14.77
2019-04-28T09:18:48.882Z,15.07
2019-04-28T09:22:50.497Z,14.99
2019-04-28T09:26:52.261Z,14.83
2019-04-28T09:30:53.960Z,14.46
2019-04-28T09:34:55.662Z,14.15
2019-04-28T09:38:57.347Z,14.17
2019-04-28T09:42:59.955Z,14.07
2019-04-28T09:47:01.542Z,14.17
2019-04-28T09:51:03.174Z,14.05
2019-04-28T09:55:04.818Z,14.09
2019-04-28T09:59:07.417Z,14.11
2019-04-28T10:03:09.812Z,13.88
2019-04-28T10:07:11.993Z,13.79
2019-04-28T10:11:13.651Z,13.85
2019-04-28T10:15:15.502Z,14.06
2019-04-28T10:19:18.112Z,13.93
2019-04-28T10:23:20.748Z,13.94
2019-04-28T10:27:22.403Z,13.66
2019-04-28T10:31:25.398Z,13.70
2019-04-28T10:35:28.010Z,13.89
2019-04-28T10:39:30.352Z,14.17
2019-04-28T10:43:32.576Z,14.47
2019-04-28T10:47:34.705Z,14.56
2019-04-28T10:51:37.276Z,14.93
2019-04-28T10:55:40.077Z,15.00
2019-04-28T10:59:42.447Z,15.09
2019-04-28T11:03:44.787Z,15.15
2019-04-28T11:07:46.392Z,15.11
2019-04-28T11:11:48.201Z,15.10
2019-04-28T11:15:50.608Z,15.09
2019-04-28T11:19:52.373Z,15.16
2019-04-28T11:23:55.107Z,14.95
2019-04-28T11:27:58.633Z,14.89
2019-04-28T11:32:01.112Z,14.98
2019-04-28T11:36:02.919Z,15.10
2019-04-28T11:40:06.386Z,15.02
2019-04-28T11:44:10.697Z,14.76
2019-04-28T11:48:12.529Z,14.78
2019-04-28T11:52:14.535Z,14.75
2019-04-28T11:56:16.398Z,15.00
2019-04-28T12:00:18.562Z,14.92
2019-04-28T12:04:20.375Z,14.91
2019-04-28T12:08:24.188Z,14.90
2019-04-28T12:12:26.526Z,15.05
2019-04-28T12:16:28.612Z,15.50
2019-04-28T12:20:31.779Z,16.16
2019-04-28T12:24:34.173Z,16.76
2019-04-28T12:28:35.838Z,16.91
2019-04-28T12:32:37.939Z,16.60
2019-04-28T12:36:39.596Z,16.42
2019-04-28T12:40:41.194Z,16.51
2019-04-28T12:44:43.358Z,16.97
2019-04-28T12:48:44.963Z,17.10
2019-04-28T12:52:46.749Z,16.68
2019-04-28T12:56:48.531Z,16.12
2019-04-28T13:00:50.350Z,15.52
2019-04-28T13:04:52.438Z,15.08
2019-04-28T13:08:54.455Z,14.73
2019-04-28T13:12:56.740Z,14.75
2019-04-28T13:16:58.498Z,14.48
2019-04-28T13:21:00.478Z,14.33
2019-04-28T13:25:02.500Z,14.19
2019-04-28T13:32:03.955Z,14.42
2019-04-28T13:36:14.477Z,14.35
2019-04-28T13:40:11.662Z,14.51
2019-04-28T13:44:14.014Z,14.75
2019-04-28T13:48:15.813Z,14.72
2019-04-28T13:52:18.147Z,14.75
2019-04-28T13:56:20.656Z,15.03
2019-04-28T14:00:22.795Z,15.03
2019-04-28T14:04:24.668Z,15.12
2019-04-28T14:08:27.355Z,15.16
2019-04-28T14:12:29.123Z,15.30
2019-04-28T14:16:32.748Z,15.38
2019-04-28T14:20:35.239Z,15.53
2019-04-28T14:24:37.532Z,15.50
2019-04-28T14:28:39.318Z,15.36
2019-04-28T14:32:41.031Z,15.17
2019-04-28T14:36:43.001Z,15.21
2019-04-28T14:40:44.664Z,15.01
2019-04-28T14:44:46.405Z,15.09
2019-04-28T14:48:49.465Z,15.11
2019-04-28T14:52:51.365Z,15.21
2019-04-28T14:56:53.650Z,15.16
2019-04-28T15:00:55.572Z,15.41
2019-04-28T15:04:57.792Z,15.53
2019-04-28T15:09:00.553Z,15.92
2019-04-28T15:13:02.616Z,16.59
2019-04-28T15:17:04.432Z,16.95
2019-04-28T15:21:06.149Z,17.23
2019-04-28T15:25:08.433Z,17.23
2019-04-28T15:29:10.082Z,17.09
2019-04-28T15:33:11.927Z,16.62
2019-04-28T15:37:15.508Z,16.06
2019-04-28T15:41:21.847Z,16.14
2019-04-28T15:45:21.090Z,16.08
2019-04-28T15:49:23.008Z,15.81
2019-04-28T15:53:24.744Z,15.29
2019-04-28T15:57:26.935Z,15.30
2019-04-28T16:01:29.642Z,15.53
2019-04-28T16:05:31.366Z,16.05
2019-04-28T16:09:33.720Z,16.29
2019-04-28T16:13:35.970Z,16.33
2019-04-28T16:17:37.706Z,16.36
2019-04-28T16:21:40.380Z,16.24
2019-04-28T16:25:42.818Z,15.91
2019-04-28T16:29:44.715Z,15.79
2019-04-28T16:33:46.632Z,15.62
2019-04-28T16:37:49.331Z,15.67
2019-04-28T16:41:51.083Z,15.79
2019-04-28T16:45:52.834Z,15.83
2019-04-28T16:49:54.610Z,15.81
2019-04-28T16:53:56.667Z,16.36
2019-04-28T16:57:59.631Z,16.63
2019-04-28T17:02:01.620Z,17.36
2019-04-28T17:06:03.738Z,18.14
2019-04-28T17:10:06.505Z,19.34
2019-04-28T17:14:08.297Z,19.38
2019-04-28T17:18:10.534Z,18.82
2019-04-28T17:22:12.904Z,19.39
2019-04-28T17:26:14.720Z,19.73
2019-04-28T17:30:16.643Z,19.75
2019-04-28T17:34:19.947Z,20.63
2019-04-28T17:38:21.632Z,21.32
2019-04-28T17:42:23.529Z,21.55
2019-04-28T17:46:25.295Z,21.79
2019-04-28T17:50:27.071Z,20.25
2019-04-28T17:54:28.894Z,18.36
2019-04-28T17:58:30.958Z,16.83
2019-04-28T18:02:32.659Z,16.01
2019-04-28T18:06:34.680Z,15.33
2019-04-28T18:10:37.993Z,14.92
2019-04-28T18:14:40.807Z,14.51
2019-04-28T18:18:42.977Z,14.12
2019-04-28T18:22:45.092Z,13.74
2019-04-28T18:26:47.537Z,13.40
2019-04-28T18:30:49.659Z,13.21
2019-04-28T18:34:52.574Z,12.98
2019-04-28T18:38:54.303Z,12.98
2019-04-28T18:42:58.110Z,12.80
2019-04-28T18:47:01.644Z,12.68
2019-04-28T18:51:04.222Z,12.59
2019-04-28T18:55:08.124Z,12.36
2019-04-28T18:59:10.727Z,12.28
2019-04-28T19:03:12.801Z,12.21
2019-04-28T19:07:15.316Z,12.11
2019-04-28T19:11:18.325Z,12.09
2019-04-28T19:15:22.783Z,11.85
2019-04-28T19:19:25.408Z,11.91
2019-04-28T19:23:27.927Z,11.94
2019-04-28T19:27:32.765Z,11.91
2019-04-28T19:31:35.216Z,11.82
2019-04-28T19:35:39.170Z,11.83
2019-04-28T19:39:42.041Z,11.68
2019-04-28T19:43:44.489Z,11.59
2019-04-28T19:47:46.718Z,11.46
2019-04-28T19:51:48.635Z,11.42
2019-04-28T19:55:50.616Z,11.34
2019-04-28T19:59:53.124Z,11.28
2019-04-28T20:03:56.821Z,11.15
2019-04-28T20:07:59.435Z,11.15
2019-04-28T20:12:01.910Z,11.04
2019-04-28T20:16:04.756Z,10.85
2019-04-28T20:20:07.064Z,11.07
2019-04-28T20:24:09.358Z,11.09
2019-04-28T20:28:11.642Z,10.90
2019-04-28T20:32:14.005Z,10.84
2019-04-28T20:36:16.476Z,10.83
2019-04-28T20:40:19.461Z,10.80
2019-04-28T20:44:22.382Z,10.70
2019-04-28T20:48:25.516Z,10.57
2019-04-28T20:52:28.087Z,10.53
2019-04-28T20:56:32.106Z,10.56
2019-04-28T21:00:34.343Z,10.56
2019-04-28T21:04:37.118Z,10.52
2019-04-28T21:08:39.445Z,10.41
2019-04-28T21:12:41.465Z,10.32
2019-04-28T21:16:43.623Z,10.20
2019-04-28T21:20:46.343Z,10.09
2019-04-28T21:24:48.982Z,10.05
2019-04-28T21:28:51.832Z,10.03
2019-04-28T21:32:54.281Z,10.06
2019-04-28T21:36:57.060Z,10.07
2019-04-28T21:40:59.037Z,9.99
2019-04-28T21:45:01.013Z,9.95
2019-04-28T21:49:04.298Z,9.86
2019-04-28T21:53:06.574Z,9.83
2019-04-28T21:57:09.252Z,9.96
2019-04-28T22:01:15.472Z,9.75
2019-04-28T22:05:29.900Z,9.40
2019-04-28T22:09:23.039Z,9.50
2019-04-28T22:13:25.372Z,9.39
2019-04-28T22:17:28.341Z,9.41
2019-04-28T22:21:30.287Z,9.37
2019-04-28T22:25:32.485Z,9.37
2019-04-28T22:29:35.020Z,9.37
2019-04-28T22:33:36.879Z,9.17
2019-04-28T22:37:40.152Z,9.13
2019-04-28T22:41:42.341Z,9.17
2019-04-28T22:45:44.469Z,9.10
2019-04-28T22:49:46.272Z,9.03
2019-04-28T22:53:49.016Z,9.07
2019-04-28T22:57:50.797Z,8.93
2019-04-28T23:01:52.790Z,8.94
2019-04-28T23:05:55.658Z,8.92
2019-04-28T23:09:58.282Z,8.97
2019-04-28T23:14:01.617Z,8.90
2019-04-28T23:18:04.378Z,8.80
2019-04-28T23:22:06.230Z,8.78
2019-04-28T23:26:08.151Z,8.78
2019-04-28T23:30:09.915Z,8.75
2019-04-28T23:34:11.597Z,8.72
2019-04-28T23:38:13.587Z,8.63
2019-04-28T23:42:15.343Z,8.51
2019-04-28T23:46:17.020Z,8.40
2019-04-28T23:50:18.787Z,8.30
2019-04-28T23:54:21.035Z,8.29
2019-04-28T23:58:22.705Z,8.26
